sensor_id;sensor_type;location;lat;lon;timestamp;temperature;humidity
7388;DHT22;3735;50.136;11.062;2024-01-25T00:01:47;7.10;99.90
7388;DHT22;3735;50.136;11.062;2024-01-25T00:04:13;7.00;99.90
7388;DHT22;3735;50.136;11.062;2024-01-25T00:06:38;6.90;99.90
7388;DHT22;3735;50.136;11.062;2024-01-25T00:09:04;6.90;99.90
7388;DHT22;3735;50.136;11.062;2024-01-25T00:11:30;6.90;99.90
7388;DHT22;3735;50.136;11.062;2024-01-25T00:13:57;6.90;99.90
7388;DHT22;3735;50.136;11.062;2024-01-25T00:16:23;6.90;99.90
7388;DHT22;3735;50.136;11.062;2024-01-25T00:18:49;6.90;99.90
7388;DHT22;3735;50.136;11.062;2024-01-25T00:21:16;6.90;99.90
7388;DHT22;3735;50.136;11.062;2024-01-25T00:23:41;6.90;99.90
7388;DHT22;3735;50.136;11.062;2024-01-25T00:26:07;7.00;99.90
7388;DHT22;3735;50.136;11.062;2024-01-25T00:28:33;6.90;99.90
7388;DHT22;3735;50.136;11.062;2024-01-25T00:30:59;6.90;99.90
7388;DHT22;3735;50.136;11.062;2024-01-25T00:33:24;6.90;99.90
7388;DHT22;3735;50.136;11.062;2024-01-25T00:35:51;7.00;99.90
7388;DHT22;3735;50.136;11.062;2024-01-25T00:38:17;7.00;99.90
7388;DHT22;3735;50.136;11.062;2024-01-25T00:40:43;7.00;99.90
7388;DHT22;3735;50.136;11.062;2024-01-25T00:43:09;7.10;99.90
7388;DHT22;3735;50.136;11.062;2024-01-25T00:45:35;7.10;99.90
7388;DHT22;3735;50.136;11.062;2024-01-25T00:48:02;7.10;99.90
7388;DHT22;3735;50.136;11.062;2024-01-25T00:50:29;7.10;99.90
7388;DHT22;3735;50.136;11.062;2024-01-25T00:52:55;7.00;99.90
7388;DHT22;3735;50.136;11.062;2024-01-25T00:55:21;7.00;99.90
7388;DHT22;3735;50.136;11.062;2024-01-25T00:57:47;7.00;99.90
7388;DHT22;3735;50.136;11.062;2024-01-25T01:00:14;6.90;99.90
7388;DHT22;3735;50.136;11.062;2024-01-25T01:02:43;7.00;99.90
7388;DHT22;3735;50.136;11.062;2024-01-25T01:05:11;7.10;99.90
7388;DHT22;3735;50.136;11.062;2024-01-25T01:07:38;7.10;99.90
7388;DHT22;3735;50.136;11.062;2024-01-25T01:10:08;7.10;99.90
7388;DHT22;3735;50.136;11.062;2024-01-25T01:12:35;7.10;99.90
7388;DHT22;3735;50.136;11.062;2024-01-25T01:15:01;7.10;99.90
7388;DHT22;3735;50.136;11.062;2024-01-25T01:17:27;7.10;99.90
7388;DHT22;3735;50.136;11.062;2024-01-25T01:19:53;7.10;99.90
7388;DHT22;3735;50.136;11.062;2024-01-25T01:22:19;7.10;99.90
7388;DHT22;3735;50.136;11.062;2024-01-25T01:24:45;7.10;99.90
7388;DHT22;3735;50.136;11.062;2024-01-25T01:27:10;7.00;99.90
7388;DHT22;3735;50.136;11.062;2024-01-25T01:29:36;7.10;99.90
7388;DHT22;3735;50.136;11.062;2024-01-25T01:32:02;7.10;99.90
7388;DHT22;3735;50.136;11.062;2024-01-25T01:34:28;7.10;99.90
7388;DHT22;3735;50.136;11.062;2024-01-25T01:36:54;7.00;99.90
7388;DHT22;3735;50.136;11.062;2024-01-25T01:39:20;7.00;99.90
7388;DHT22;3735;50.136;11.062;2024-01-25T01:41:49;7.00;99.90
7388;DHT22;3735;50.136;11.062;2024-01-25T01:44:15;7.00;99.90
7388;DHT22;3735;50.136;11.062;2024-01-25T01:46:41;7.00;99.90
7388;DHT22;3735;50.136;11.062;2024-01-25T01:49:12;7.00;99.90
7388;DHT22;3735;50.136;11.062;2024-01-25T01:51:40;7.00;99.90
7388;DHT22;3735;50.136;11.062;2024-01-25T01:54:10;6.90;99.90
7388;DHT22;3735;50.136;11.062;2024-01-25T01:56:36;6.90;99.90
7388;DHT22;3735;50.136;11.062;2024-01-25T01:59:04;6.90;99.90
7388;DHT22;3735;50.136;11.062;2024-01-25T02:01:33;6.90;99.90
7388;DHT22;3735;50.136;11.062;2024-01-25T02:03:59;6.80;99.90
7388;DHT22;3735;50.136;11.062;2024-01-25T02:06:24;6.80;99.90
7388;DHT22;3735;50.136;11.062;2024-01-25T02:08:51;6.70;99.90
7388;DHT22;3735;50.136;11.062;2024-01-25T02:11:19;6.80;99.90
7388;DHT22;3735;50.136;11.062;2024-01-25T02:13:45;6.70;99.90
7388;DHT22;3735;50.136;11.062;2024-01-25T02:16:12;6.70;99.90
7388;DHT22;3735;50.136;11.062;2024-01-25T02:18:43;6.70;99.90
7388;DHT22;3735;50.136;11.062;2024-01-25T02:21:09;6.80;99.90
7388;DHT22;3735;50.136;11.062;2024-01-25T02:23:35;6.80;99.90
7388;DHT22;3735;50.136;11.062;2024-01-25T02:26:01;6.80;99.90
7388;DHT22;3735;50.136;11.062;2024-01-25T02:28:27;6.70;99.90
7388;DHT22;3735;50.136;11.062;2024-01-25T02:30:53;6.70;99.90
7388;DHT22;3735;50.136;11.062;2024-01-25T02:33:18;6.70;99.90
7388;DHT22;3735;50.136;11.062;2024-01-25T02:35:44;6.70;99.90
7388;DHT22;3735;50.136;11.062;2024-01-25T02:38:10;6.70;99.90
7388;DHT22;3735;50.136;11.062;2024-01-25T02:40:36;6.70;99.90
7388;DHT22;3735;50.136;11.062;2024-01-25T02:43:02;6.70;99.90
7388;DHT22;3735;50.136;11.062;2024-01-25T02:45:28;6.70;99.90
7388;DHT22;3735;50.136;11.062;2024-01-25T02:47:53;6.70;99.90
7388;DHT22;3735;50.136;11.062;2024-01-25T02:50:19;6.60;99.90
7388;DHT22;3735;50.136;11.062;2024-01-25T02:52:45;6.60;99.90
7388;DHT22;3735;50.136;11.062;2024-01-25T02:55:11;6.60;99.90
7388;DHT22;3735;50.136;11.062;2024-01-25T02:57:37;6.60;99.90
7388;DHT22;3735;50.136;11.062;2024-01-25T03:00:03;6.60;99.90
7388;DHT22;3735;50.136;11.062;2024-01-25T03:02:30;6.50;99.90
7388;DHT22;3735;50.136;11.062;2024-01-25T03:04:56;6.50;99.90
7388;DHT22;3735;50.136;11.062;2024-01-25T03:07:22;6.40;99.90
7388;DHT22;3735;50.136;11.062;2024-01-25T03:09:48;6.50;99.90
7388;DHT22;3735;50.136;11.062;2024-01-25T03:12:14;6.50;99.90
7388;DHT22;3735;50.136;11.062;2024-01-25T03:14:39;6.60;99.90
7388;DHT22;3735;50.136;11.062;2024-01-25T03:17:05;6.60;99.90
7388;DHT22;3735;50.136;11.062;2024-01-25T03:19:31;6.60;99.90
7388;DHT22;3735;50.136;11.062;2024-01-25T03:21:59;6.60;99.90
7388;DHT22;3735;50.136;11.062;2024-01-25T03:24:27;6.50;99.90
7388;DHT22;3735;50.136;11.062;2024-01-25T03:26:53;6.50;99.90
7388;DHT22;3735;50.136;11.062;2024-01-25T03:29:19;6.50;99.90
7388;DHT22;3735;50.136;11.062;2024-01-25T03:31:45;6.40;99.90
7388;DHT22;3735;50.136;11.062;2024-01-25T03:34:11;6.30;99.90
7388;DHT22;3735;50.136;11.062;2024-01-25T03:36:38;6.30;99.90
7388;DHT22;3735;50.136;11.062;2024-01-25T03:39:05;6.30;99.90
7388;DHT22;3735;50.136;11.062;2024-01-25T03:41:32;6.20;99.90
7388;DHT22;3735;50.136;11.062;2024-01-25T03:43:58;6.30;99.90
7388;DHT22;3735;50.136;11.062;2024-01-25T03:46:24;6.20;99.90
7388;DHT22;3735;50.136;11.062;2024-01-25T03:48:50;6.20;99.90
7388;DHT22;3735;50.136;11.062;2024-01-25T03:51:15;6.20;99.90
7388;DHT22;3735;50.136;11.062;2024-01-25T03:53:42;6.10;99.90
7388;DHT22;3735;50.136;11.062;2024-01-25T03:56:14;6.00;99.90
7388;DHT22;3735;50.136;11.062;2024-01-25T03:58:43;5.90;99.90
7388;DHT22;3735;50.136;11.062;2024-01-25T04:01:10;5.90;99.90
7388;DHT22;3735;50.136;11.062;2024-01-25T04:03:36;5.80;99.90
7388;DHT22;3735;50.136;11.062;2024-01-25T04:06:02;5.80;99.90
7388;DHT22;3735;50.136;11.062;2024-01-25T04:08:28;5.90;99.90
7388;DHT22;3735;50.136;11.062;2024-01-25T04:10:54;5.90;99.90
7388;DHT22;3735;50.136;11.062;2024-01-25T04:13:20;6.00;99.90
7388;DHT22;3735;50.136;11.062;2024-01-25T04:15:46;5.90;99.90
7388;DHT22;3735;50.136;11.062;2024-01-25T04:18:12;5.90;99.90
7388;DHT22;3735;50.136;11.062;2024-01-25T04:20:37;5.90;99.90
7388;DHT22;3735;50.136;11.062;2024-01-25T04:23:03;5.90;99.90
7388;DHT22;3735;50.136;11.062;2024-01-25T04:25:29;5.90;99.90
7388;DHT22;3735;50.136;11.062;2024-01-25T04:27:55;5.90;99.90
7388;DHT22;3735;50.136;11.062;2024-01-25T04:30:21;6.00;99.90
7388;DHT22;3735;50.136;11.062;2024-01-25T04:32:46;5.90;99.90
7388;DHT22;3735;50.136;11.062;2024-01-25T04:35:12;5.80;99.90
7388;DHT22;3735;50.136;11.062;2024-01-25T04:37:38;5.70;99.90
7388;DHT22;3735;50.136;11.062;2024-01-25T04:40:04;5.60;99.90
7388;DHT22;3735;50.136;11.062;2024-01-25T04:42:31;5.60;99.90
7388;DHT22;3735;50.136;11.062;2024-01-25T04:44:57;5.50;99.90
7388;DHT22;3735;50.136;11.062;2024-01-25T04:47:23;5.60;99.90
7388;DHT22;3735;50.136;11.062;2024-01-25T04:49:49;5.60;99.90
7388;DHT22;3735;50.136;11.062;2024-01-25T04:52:14;5.50;99.90
7388;DHT22;3735;50.136;11.062;2024-01-25T04:54:40;5.50;99.90
7388;DHT22;3735;50.136;11.062;2024-01-25T04:57:06;5.40;99.90
7388;DHT22;3735;50.136;11.062;2024-01-25T04:59:33;5.40;99.90
7388;DHT22;3735;50.136;11.062;2024-01-25T05:01:59;5.40;99.90
7388;DHT22;3735;50.136;11.062;2024-01-25T05:04:25;5.30;99.90
7388;DHT22;3735;50.136;11.062;2024-01-25T05:06:51;5.30;99.90
7388;DHT22;3735;50.136;11.062;2024-01-25T05:09:17;5.40;99.90
7388;DHT22;3735;50.136;11.062;2024-01-25T05:11:45;5.40;99.90
7388;DHT22;3735;50.136;11.062;2024-01-25T05:14:11;5.40;99.90
7388;DHT22;3735;50.136;11.062;2024-01-25T05:16:37;5.50;99.90
7388;DHT22;3735;50.136;11.062;2024-01-25T05:19:03;5.60;99.90
7388;DHT22;3735;50.136;11.062;2024-01-25T05:21:31;5.70;99.90
7388;DHT22;3735;50.136;11.062;2024-01-25T05:23:57;5.60;99.90
7388;DHT22;3735;50.136;11.062;2024-01-25T05:26:23;5.70;99.90
7388;DHT22;3735;50.136;11.062;2024-01-25T05:28:49;5.70;99.90
7388;DHT22;3735;50.136;11.062;2024-01-25T05:31:15;5.60;99.90
7388;DHT22;3735;50.136;11.062;2024-01-25T05:33:42;5.50;99.90
7388;DHT22;3735;50.136;11.062;2024-01-25T05:36:08;5.50;99.90
7388;DHT22;3735;50.136;11.062;2024-01-25T05:38:35;5.50;99.90
7388;DHT22;3735;50.136;11.062;2024-01-25T05:41:01;5.40;99.90
7388;DHT22;3735;50.136;11.062;2024-01-25T05:43:27;5.40;99.90
7388;DHT22;3735;50.136;11.062;2024-01-25T05:45:52;5.30;99.90
7388;DHT22;3735;50.136;11.062;2024-01-25T05:48:21;5.40;99.90
7388;DHT22;3735;50.136;11.062;2024-01-25T05:50:47;5.40;99.90
7388;DHT22;3735;50.136;11.062;2024-01-25T05:53:13;5.40;99.90
7388;DHT22;3735;50.136;11.062;2024-01-25T05:55:39;5.40;99.90
7388;DHT22;3735;50.136;11.062;2024-01-25T05:58:05;5.40;99.90
7388;DHT22;3735;50.136;11.062;2024-01-25T06:00:30;5.40;99.90
7388;DHT22;3735;50.136;11.062;2024-01-25T06:02:56;5.40;99.90
7388;DHT22;3735;50.136;11.062;2024-01-25T06:05:22;5.30;99.90
7388;DHT22;3735;50.136;11.062;2024-01-25T06:07:48;5.30;99.90
7388;DHT22;3735;50.136;11.062;2024-01-25T06:10:15;5.30;99.90
7388;DHT22;3735;50.136;11.062;2024-01-25T06:12:41;5.30;99.90
7388;DHT22;3735;50.136;11.062;2024-01-25T06:15:07;5.30;99.90
7388;DHT22;3735;50.136;11.062;2024-01-25T06:17:33;5.40;99.90
7388;DHT22;3735;50.136;11.062;2024-01-25T06:19:59;5.30;99.90
7388;DHT22;3735;50.136;11.062;2024-01-25T06:22:25;5.20;99.90
7388;DHT22;3735;50.136;11.062;2024-01-25T06:24:51;5.20;99.90
7388;DHT22;3735;50.136;11.062;2024-01-25T06:27:19;5.10;99.90
7388;DHT22;3735;50.136;11.062;2024-01-25T06:29:45;5.20;99.90
7388;DHT22;3735;50.136;11.062;2024-01-25T06:32:11;5.20;99.90
7388;DHT22;3735;50.136;11.062;2024-01-25T06:34:37;5.10;99.90
7388;DHT22;3735;50.136;11.062;2024-01-25T06:37:03;5.10;99.90
7388;DHT22;3735;50.136;11.062;2024-01-25T06:39:29;5.10;99.90
7388;DHT22;3735;50.136;11.062;2024-01-25T06:41:55;5.20;99.90
7388;DHT22;3735;50.136;11.062;2024-01-25T06:44:21;5.30;99.90
7388;DHT22;3735;50.136;11.062;2024-01-25T06:46:47;5.40;99.90
7388;DHT22;3735;50.136;11.062;2024-01-25T06:49:13;5.50;99.90
7388;DHT22;3735;50.136;11.062;2024-01-25T06:51:39;5.60;99.90
7388;DHT22;3735;50.136;11.062;2024-01-25T06:54:05;5.70;99.90
7388;DHT22;3735;50.136;11.062;2024-01-25T06:56:30;5.70;99.90
7388;DHT22;3735;50.136;11.062;2024-01-25T06:58:56;5.80;99.90
7388;DHT22;3735;50.136;11.062;2024-01-25T07:01:23;5.80;99.90
7388;DHT22;3735;50.136;11.062;2024-01-25T07:03:49;5.80;99.90
7388;DHT22;3735;50.136;11.062;2024-01-25T07:06:19;5.80;99.90
7388;DHT22;3735;50.136;11.062;2024-01-25T07:08:45;5.90;99.90
7388;DHT22;3735;50.136;11.062;2024-01-25T07:11:11;5.90;99.90
7388;DHT22;3735;50.136;11.062;2024-01-25T07:13:38;5.90;99.90
7388;DHT22;3735;50.136;11.062;2024-01-25T07:16:04;5.90;99.90
7388;DHT22;3735;50.136;11.062;2024-01-25T07:18:30;5.90;99.90
7388;DHT22;3735;50.136;11.062;2024-01-25T07:20:56;5.90;99.90
7388;DHT22;3735;50.136;11.062;2024-01-25T07:23:22;6.00;99.90
7388;DHT22;3735;50.136;11.062;2024-01-25T07:25:48;5.90;99.90
7388;DHT22;3735;50.136;11.062;2024-01-25T07:28:14;5.90;99.90
7388;DHT22;3735;50.136;11.062;2024-01-25T07:30:40;5.80;99.90
7388;DHT22;3735;50.136;11.062;2024-01-25T07:33:06;5.80;99.90
7388;DHT22;3735;50.136;11.062;2024-01-25T07:35:32;5.80;99.90
7388;DHT22;3735;50.136;11.062;2024-01-25T07:37:58;5.80;99.90
7388;DHT22;3735;50.136;11.062;2024-01-25T07:40:24;5.90;99.90
7388;DHT22;3735;50.136;11.062;2024-01-25T07:42:49;5.90;99.90
7388;DHT22;3735;50.136;11.062;2024-01-25T07:45:15;5.90;99.90
7388;DHT22;3735;50.136;11.062;2024-01-25T07:47:42;5.90;99.90
7388;DHT22;3735;50.136;11.062;2024-01-25T07:50:09;5.90;99.90
7388;DHT22;3735;50.136;11.062;2024-01-25T07:52:35;6.00;99.90
7388;DHT22;3735;50.136;11.062;2024-01-25T07:55:01;6.10;99.90
7388;DHT22;3735;50.136;11.062;2024-01-25T07:57:27;6.20;99.90
7388;DHT22;3735;50.136;11.062;2024-01-25T07:59:53;6.30;99.90
7388;DHT22;3735;50.136;11.062;2024-01-25T08:02:18;6.30;99.90
7388;DHT22;3735;50.136;11.062;2024-01-25T08:04:44;6.20;99.90
7388;DHT22;3735;50.136;11.062;2024-01-25T08:07:14;6.10;99.90
7388;DHT22;3735;50.136;11.062;2024-01-25T08:09:39;6.00;99.90
7388;DHT22;3735;50.136;11.062;2024-01-25T08:12:05;5.90;99.90
7388;DHT22;3735;50.136;11.062;2024-01-25T08:14:31;6.00;99.90
7388;DHT22;3735;50.136;11.062;2024-01-25T08:16:57;6.20;99.90
7388;DHT22;3735;50.136;11.062;2024-01-25T08:19:23;6.50;99.90
7388;DHT22;3735;50.136;11.062;2024-01-25T08:21:49;6.60;99.90
7388;DHT22;3735;50.136;11.062;2024-01-25T08:24:15;6.60;99.90
7388;DHT22;3735;50.136;11.062;2024-01-25T08:26:41;6.70;99.90
7388;DHT22;3735;50.136;11.062;2024-01-25T08:29:10;6.70;99.90
7388;DHT22;3735;50.136;11.062;2024-01-25T08:31:36;6.80;99.90
7388;DHT22;3735;50.136;11.062;2024-01-25T08:34:02;6.90;99.90
7388;DHT22;3735;50.136;11.062;2024-01-25T08:36:28;7.00;99.90
7388;DHT22;3735;50.136;11.062;2024-01-25T08:38:53;7.00;99.90
7388;DHT22;3735;50.136;11.062;2024-01-25T08:41:19;7.00;99.90
7388;DHT22;3735;50.136;11.062;2024-01-25T08:43:45;7.00;99.90
7388;DHT22;3735;50.136;11.062;2024-01-25T08:46:14;7.10;99.90
7388;DHT22;3735;50.136;11.062;2024-01-25T08:48:41;7.20;99.90
7388;DHT22;3735;50.136;11.062;2024-01-25T08:51:08;7.20;99.90
7388;DHT22;3735;50.136;11.062;2024-01-25T08:53:34;7.30;99.90
7388;DHT22;3735;50.136;11.062;2024-01-25T08:56:00;7.20;99.90
7388;DHT22;3735;50.136;11.062;2024-01-25T08:58:25;7.30;99.90
7388;DHT22;3735;50.136;11.062;2024-01-25T09:00:51;7.30;99.90
7388;DHT22;3735;50.136;11.062;2024-01-25T09:03:17;7.30;99.90
7388;DHT22;3735;50.136;11.062;2024-01-25T09:05:43;7.50;99.90
7388;DHT22;3735;50.136;11.062;2024-01-25T09:08:13;7.80;99.90
7388;DHT22;3735;50.136;11.062;2024-01-25T09:10:41;8.20;99.90
7388;DHT22;3735;50.136;11.062;2024-01-25T09:13:07;8.40;99.90
7388;DHT22;3735;50.136;11.062;2024-01-25T09:15:33;8.70;99.90
7388;DHT22;3735;50.136;11.062;2024-01-25T09:17:59;8.90;99.90
7388;DHT22;3735;50.136;11.062;2024-01-25T09:20:25;9.10;99.90
7388;DHT22;3735;50.136;11.062;2024-01-25T09:22:52;9.10;99.90
7388;DHT22;3735;50.136;11.062;2024-01-25T09:25:21;8.90;99.90
7388;DHT22;3735;50.136;11.062;2024-01-25T09:27:47;8.70;99.90
7388;DHT22;3735;50.136;11.062;2024-01-25T09:30:13;8.50;99.90
7388;DHT22;3735;50.136;11.062;2024-01-25T09:32:39;8.40;99.90
7388;DHT22;3735;50.136;11.062;2024-01-25T09:35:06;8.30;99.90
7388;DHT22;3735;50.136;11.062;2024-01-25T09:37:33;8.10;99.90
7388;DHT22;3735;50.136;11.062;2024-01-25T09:39:59;8.10;99.90
7388;DHT22;3735;50.136;11.062;2024-01-25T09:42:24;8.20;99.90
7388;DHT22;3735;50.136;11.062;2024-01-25T09:44:52;8.30;99.90
7388;DHT22;3735;50.136;11.062;2024-01-25T09:47:20;8.50;99.90
7388;DHT22;3735;50.136;11.062;2024-01-25T09:49:52;8.70;99.90
7388;DHT22;3735;50.136;11.062;2024-01-25T09:52:19;8.80;99.90
7388;DHT22;3735;50.136;11.062;2024-01-25T09:54:53;8.90;99.90
7388;DHT22;3735;50.136;11.062;2024-01-25T09:57:24;8.90;99.90
7388;DHT22;3735;50.136;11.062;2024-01-25T09:59:52;9.10;99.90
7388;DHT22;3735;50.136;11.062;2024-01-25T10:02:20;9.20;99.90
7388;DHT22;3735;50.136;11.062;2024-01-25T10:04:53;9.30;99.90
7388;DHT22;3735;50.136;11.062;2024-01-25T10:10:07;9.50;99.90
7388;DHT22;3735;50.136;11.062;2024-01-25T10:12:34;9.60;99.90
7388;DHT22;3735;50.136;11.062;2024-01-25T10:15:04;10.30;99.90
7388;DHT22;3735;50.136;11.062;2024-01-25T10:17:31;10.30;99.90
7388;DHT22;3735;50.136;11.062;2024-01-25T10:19:57;10.80;99.90
7388;DHT22;3735;50.136;11.062;2024-01-25T10:22:23;11.50;99.90
7388;DHT22;3735;50.136;11.062;2024-01-25T10:24:49;12.30;99.90
7388;DHT22;3735;50.136;11.062;2024-01-25T10:27:21;13.70;99.90
7388;DHT22;3735;50.136;11.062;2024-01-25T10:29:49;14.40;99.90
7388;DHT22;3735;50.136;11.062;2024-01-25T10:32:16;13.90;99.90
7388;DHT22;3735;50.136;11.062;2024-01-25T10:34:45;12.90;99.90
7388;DHT22;3735;50.136;11.062;2024-01-25T11:17:50;10.80;99.90
7388;DHT22;3735;50.136;11.062;2024-01-25T11:21:56;10.50;99.90
7388;DHT22;3735;50.136;11.062;2024-01-25T11:24:23;10.20;99.90
7388;DHT22;3735;50.136;11.062;2024-01-25T11:26:54;10.00;99.90
7388;DHT22;3735;50.136;11.062;2024-01-25T11:29:51;9.90;99.90
7388;DHT22;3735;50.136;11.062;2024-01-25T11:32:52;9.60;99.90
7388;DHT22;3735;50.136;11.062;2024-01-25T11:36:24;9.40;99.90
7388;DHT22;3735;50.136;11.062;2024-01-25T11:40:03;9.20;99.90
7388;DHT22;3735;50.136;11.062;2024-01-25T11:49:22;8.90;99.90
7388;DHT22;3735;50.136;11.062;2024-01-25T11:52:34;8.90;99.90
7388;DHT22;3735;50.136;11.062;2024-01-25T11:55:10;8.80;99.90
7388;DHT22;3735;50.136;11.062;2024-01-25T11:58:06;8.80;99.90
7388;DHT22;3735;50.136;11.062;2024-01-25T12:01:40;8.70;99.90
7388;DHT22;3735;50.136;11.062;2024-01-25T12:08:22;8.80;99.90
7388;DHT22;3735;50.136;11.062;2024-01-25T12:15:01;8.90;99.90
7388;DHT22;3735;50.136;11.062;2024-01-25T12:18:29;8.90;99.90
7388;DHT22;3735;50.136;11.062;2024-01-25T12:25:10;9.20;99.90
7388;DHT22;3735;50.136;11.062;2024-01-25T12:28:48;9.50;99.90
7388;DHT22;3735;50.136;11.062;2024-01-25T12:32:02;9.50;99.90
7388;DHT22;3735;50.136;11.062;2024-01-25T12:35:35;9.40;99.90
7388;DHT22;3735;50.136;11.062;2024-01-25T12:38:17;9.30;99.90
7388;DHT22;3735;50.136;11.062;2024-01-25T12:41:37;9.20;99.90
7388;DHT22;3735;50.136;11.062;2024-01-25T12:48:49;9.20;99.90
7388;DHT22;3735;50.136;11.062;2024-01-25T12:51:40;9.20;99.90
7388;DHT22;3735;50.136;11.062;2024-01-25T12:55:01;9.20;99.90
7388;DHT22;3735;50.136;11.062;2024-01-25T12:57:54;9.20;99.90
7388;DHT22;3735;50.136;11.062;2024-01-25T13:04:27;9.30;99.90
7388;DHT22;3735;50.136;11.062;2024-01-25T13:10:27;9.70;99.90
7388;DHT22;3735;50.136;11.062;2024-01-25T13:13:21;9.90;99.90
7388;DHT22;3735;50.136;11.062;2024-01-25T13:16:16;9.90;99.90
7388;DHT22;3735;50.136;11.062;2024-01-25T13:22:58;9.50;99.90
7388;DHT22;3735;50.136;11.062;2024-01-25T13:25:50;9.60;99.90
7388;DHT22;3735;50.136;11.062;2024-01-25T13:32:16;9.30;99.90
7388;DHT22;3735;50.136;11.062;2024-01-25T13:38:07;9.20;99.90
7388;DHT22;3735;50.136;11.062;2024-01-25T13:44:10;9.30;99.90
7388;DHT22;3735;50.136;11.062;2024-01-25T13:54:13;9.30;99.90
7388;DHT22;3735;50.136;11.062;2024-01-25T13:57:15;9.20;99.90
7388;DHT22;3735;50.136;11.062;2024-01-25T14:00:01;9.10;99.90
7388;DHT22;3735;50.136;11.062;2024-01-25T14:03:00;9.10;99.90
7388;DHT22;3735;50.136;11.062;2024-01-25T14:05:55;9.10;99.90
7388;DHT22;3735;50.136;11.062;2024-01-25T14:09:02;8.90;99.90
7388;DHT22;3735;50.136;11.062;2024-01-25T14:15:23;9.00;99.90
7388;DHT22;3735;50.136;11.062;2024-01-25T14:22:23;8.90;99.90
7388;DHT22;3735;50.136;11.062;2024-01-25T14:25:50;8.90;99.90
7388;DHT22;3735;50.136;11.062;2024-01-25T14:29:20;9.00;99.90
7388;DHT22;3735;50.136;11.062;2024-01-25T14:35:38;9.90;99.90
7388;DHT22;3735;50.136;11.062;2024-01-25T14:41:47;11.70;99.90
7388;DHT22;3735;50.136;11.062;2024-01-25T14:44:52;11.50;99.90
7388;DHT22;3735;50.136;11.062;2024-01-25T14:47:38;11.00;99.90
7388;DHT22;3735;50.136;11.062;2024-01-25T14:50:43;10.40;99.90
7388;DHT22;3735;50.136;11.062;2024-01-25T14:54:16;9.80;99.90
7388;DHT22;3735;50.136;11.062;2024-01-25T15:04:15;8.30;99.90
7388;DHT22;3735;50.136;11.062;2024-01-25T15:10:40;7.80;99.90
7388;DHT22;3735;50.136;11.062;2024-01-25T15:16:56;7.60;99.90
7388;DHT22;3735;50.136;11.062;2024-01-25T15:29:55;7.20;99.90
7388;DHT22;3735;50.136;11.062;2024-01-25T15:33:31;7.10;99.90
7388;DHT22;3735;50.136;11.062;2024-01-25T15:37:05;7.00;99.90
7388;DHT22;3735;50.136;11.062;2024-01-25T15:40:08;6.80;99.90
7388;DHT22;3735;50.136;11.062;2024-01-25T15:42:49;6.70;99.90
7388;DHT22;3735;50.136;11.062;2024-01-25T15:45:58;6.60;99.90
7388;DHT22;3735;50.136;11.062;2024-01-25T15:48:47;6.40;99.90
7388;DHT22;3735;50.136;11.062;2024-01-25T15:51:26;6.30;99.90
7388;DHT22;3735;50.136;11.062;2024-01-25T15:54:50;6.10;99.90
7388;DHT22;3735;50.136;11.062;2024-01-25T16:01:07;5.80;99.90
7388;DHT22;3735;50.136;11.062;2024-01-25T16:04:12;5.70;99.90
7388;DHT22;3735;50.136;11.062;2024-01-25T16:10:48;5.60;99.90
7388;DHT22;3735;50.136;11.062;2024-01-25T16:13:57;5.50;99.90
7388;DHT22;3735;50.136;11.062;2024-01-25T16:21:02;5.20;99.90
7388;DHT22;3735;50.136;11.062;2024-01-25T16:24:41;5.20;99.90
7388;DHT22;3735;50.136;11.062;2024-01-25T16:30:12;5.00;99.90
7388;DHT22;3735;50.136;11.062;2024-01-25T16:36:44;4.80;99.90
7388;DHT22;3735;50.136;11.062;2024-01-25T16:43:34;4.60;99.90
7388;DHT22;3735;50.136;11.062;2024-01-25T16:46:25;4.60;99.90
7388;DHT22;3735;50.136;11.062;2024-01-25T16:53:42;4.50;99.90
7388;DHT22;3735;50.136;11.062;2024-01-25T16:56:49;4.40;99.90
7388;DHT22;3735;50.136;11.062;2024-01-25T16:59:39;4.40;99.90
7388;DHT22;3735;50.136;11.062;2024-01-25T17:02:55;4.30;99.90
7388;DHT22;3735;50.136;11.062;2024-01-25T17:06:26;4.30;99.90
7388;DHT22;3735;50.136;11.062;2024-01-25T17:16:32;3.90;99.90
7388;DHT22;3735;50.136;11.062;2024-01-25T17:19:38;3.80;99.90
7388;DHT22;3735;50.136;11.062;2024-01-25T17:29:49;3.50;99.90
7388;DHT22;3735;50.136;11.062;2024-01-25T17:32:43;3.30;99.90
7388;DHT22;3735;50.136;11.062;2024-01-25T17:35:28;3.30;99.90
7388;DHT22;3735;50.136;11.062;2024-01-25T17:38:22;3.20;99.90
7388;DHT22;3735;50.136;11.062;2024-01-25T17:41:23;2.90;99.90
7388;DHT22;3735;50.136;11.062;2024-01-25T17:53:53;2.10;99.90
7388;DHT22;3735;50.136;11.062;2024-01-25T17:56:43;1.90;99.90
7388;DHT22;3735;50.136;11.062;2024-01-25T17:59:21;1.80;99.90
7388;DHT22;3735;50.136;11.062;2024-01-25T18:06:19;1.70;99.90
7388;DHT22;3735;50.136;11.062;2024-01-25T18:09:26;1.60;99.90
7388;DHT22;3735;50.136;11.062;2024-01-25T18:12:59;1.60;99.90
7388;DHT22;3735;50.136;11.062;2024-01-25T18:15:50;1.70;99.90
7388;DHT22;3735;50.136;11.062;2024-01-25T18:18:44;1.60;99.90
7388;DHT22;3735;50.136;11.062;2024-01-25T18:21:43;1.60;99.90
7388;DHT22;3735;50.136;11.062;2024-01-25T18:31:31;1.50;99.90
7388;DHT22;3735;50.136;11.062;2024-01-25T18:34:47;1.50;99.90
7388;DHT22;3735;50.136;11.062;2024-01-25T18:37:35;1.50;99.90
7388;DHT22;3735;50.136;11.062;2024-01-25T18:41:55;1.50;99.90
7388;DHT22;3735;50.136;11.062;2024-01-25T18:48:08;1.60;99.90
7388;DHT22;3735;50.136;11.062;2024-01-25T18:54:19;1.60;99.90
7388;DHT22;3735;50.136;11.062;2024-01-25T19:07:52;1.60;99.90
7388;DHT22;3735;50.136;11.062;2024-01-25T19:10:43;1.60;99.90
7388;DHT22;3735;50.136;11.062;2024-01-25T19:13:37;1.60;99.90
7388;DHT22;3735;50.136;11.062;2024-01-25T19:24:08;1.60;99.90
7388;DHT22;3735;50.136;11.062;2024-01-25T19:35:28;1.90;99.90
7388;DHT22;3735;50.136;11.062;2024-01-25T19:38:21;2.00;99.90
7388;DHT22;3735;50.136;11.062;2024-01-25T19:41:34;2.00;99.90
7388;DHT22;3735;50.136;11.062;2024-01-25T19:44:56;2.00;99.90
7388;DHT22;3735;50.136;11.062;2024-01-25T19:48:19;2.10;99.90
7388;DHT22;3735;50.136;11.062;2024-01-25T19:55:37;2.30;99.90
7388;DHT22;3735;50.136;11.062;2024-01-25T19:58:38;2.40;99.90
7388;DHT22;3735;50.136;11.062;2024-01-25T20:01:40;2.40;99.90
7388;DHT22;3735;50.136;11.062;2024-01-25T20:04:56;2.40;99.90
7388;DHT22;3735;50.136;11.062;2024-01-25T20:07:53;2.50;99.90
7388;DHT22;3735;50.136;11.062;2024-01-25T20:10:53;2.50;99.90
7388;DHT22;3735;50.136;11.062;2024-01-25T20:17:59;2.60;99.90
7388;DHT22;3735;50.136;11.062;2024-01-25T20:20:32;2.60;99.90
7388;DHT22;3735;50.136;11.062;2024-01-25T20:26:56;2.60;99.90
7388;DHT22;3735;50.136;11.062;2024-01-25T20:30:21;2.60;99.90
7388;DHT22;3735;50.136;11.062;2024-01-25T20:33:19;2.60;99.90
7388;DHT22;3735;50.136;11.062;2024-01-25T20:36:13;2.70;99.90
7388;DHT22;3735;50.136;11.062;2024-01-25T20:39:04;2.70;99.90
7388;DHT22;3735;50.136;11.062;2024-01-25T20:41:33;2.70;99.90
7388;DHT22;3735;50.136;11.062;2024-01-25T20:44:02;2.70;99.90
7388;DHT22;3735;50.136;11.062;2024-01-25T20:47:12;2.70;99.90
7388;DHT22;3735;50.136;11.062;2024-01-25T20:58:03;2.70;99.90
7388;DHT22;3735;50.136;11.062;2024-01-25T21:04:34;2.80;99.90
7388;DHT22;3735;50.136;11.062;2024-01-25T21:07:34;2.80;99.90
7388;DHT22;3735;50.136;11.062;2024-01-25T21:14:45;2.90;99.90
7388;DHT22;3735;50.136;11.062;2024-01-25T21:37:00;3.00;99.90
7388;DHT22;3735;50.136;11.062;2024-01-25T21:39:59;3.00;99.90
7388;DHT22;3735;50.136;11.062;2024-01-25T21:43:14;3.00;99.90
7388;DHT22;3735;50.136;11.062;2024-01-25T21:45:50;3.00;99.90